Homer, Michigan
Current Conditions -  °F | °C
As of 1:34 AM on Thursday 23 Oct 2014 (Local Time) from KRMY Reporting Station
Moderate Fog Moderate Fog  
Wind Chill: -1°   Ceiling: 200
Heat Index: -1°   Visibility: 0.25mi
Dew Point: -1°   Wind: 0mph
Humidity: 99%   Direction: NA
Pressure: 30.28"   Gusts: NA
Location:  42.15°N, 84.81°W
Report Text: KRMY 230534Z AUTO 00000KT 1/4SM FZFG OVC002 M01/M01 A3028 RMK AO2 T10121014
Loading
Personal Weather Stations






























Interactive Weather Map
Tropical Storm Tracking
New forecast layout! Learn more

10-Day Weather Forecast

Advertisements
Track Severe Weather on mobile